createdAt,value
2019-01-24T00:01:47.318Z,24.50
2019-01-24T00:04:17.416Z,23.53
2019-01-24T00:06:47.948Z,22.57
2019-01-24T00:09:18.164Z,21.03
2019-01-24T00:11:48.616Z,22.70
2019-01-24T00:14:18.694Z,21.93
2019-01-24T00:16:49.408Z,22.07
2019-01-24T00:19:19.453Z,22.67
2019-01-24T00:21:49.950Z,23.37
2019-01-24T00:24:20.064Z,23.90
2019-01-24T00:26:50.525Z,22.30
2019-01-24T00:29:20.596Z,22.73
2019-01-24T00:31:51.469Z,23.97
2019-01-24T00:34:23.409Z,23.60
2019-01-24T00:36:53.855Z,24.07
2019-01-24T00:39:24.017Z,21.60
2019-01-24T00:41:54.515Z,21.70
2019-01-24T00:44:24.722Z,21.03
2019-01-24T00:46:55.223Z,22.33
2019-01-24T00:49:25.395Z,23.23
2019-01-24T00:51:59.169Z,22.93
2019-01-24T00:54:29.527Z,21.90
2019-01-24T00:57:00.657Z,21.57
2019-01-24T00:59:30.875Z,21.57
2019-01-24T01:02:01.509Z,20.23
2019-01-24T01:04:31.667Z,22.73
2019-01-24T01:07:01.774Z,21.80
2019-01-24T01:09:31.881Z,20.37
2019-01-24T01:12:02.153Z,21.30
2019-01-24T01:14:32.417Z,22.83
2019-01-24T01:17:02.527Z,21.30
2019-01-24T01:19:32.753Z,23.60
2019-01-24T01:22:03.200Z,23.00
2019-01-24T01:24:33.649Z,22.13
2019-01-24T01:27:04.033Z,21.57
2019-01-24T01:29:35.796Z,22.90
2019-01-24T01:32:05.939Z,23.37
2019-01-24T01:34:36.426Z,23.60
2019-01-24T01:37:06.779Z,22.40
2019-01-24T01:39:36.877Z,23.20
2019-01-24T01:42:07.721Z,22.90
2019-01-24T01:44:37.851Z,20.90
2019-01-24T01:47:08.057Z,23.33
2019-01-24T01:49:38.412Z,23.23
2019-01-24T01:52:08.716Z,22.23
2019-01-24T01:54:40.168Z,21.97
2019-01-24T01:57:10.645Z,21.73
2019-01-24T01:59:40.749Z,20.37
2019-01-24T02:02:11.757Z,20.20
2019-01-24T02:04:43.040Z,21.40
2019-01-24T02:07:13.748Z,21.83
2019-01-24T02:09:43.952Z,20.13
2019-01-24T02:12:16.004Z,19.60
2019-01-24T02:14:46.144Z,23.03
2019-01-24T02:17:16.259Z,20.73
2019-01-24T02:19:46.391Z,20.90
2019-01-24T02:22:19.793Z,21.43
2019-01-24T02:24:49.882Z,20.83
2019-01-24T02:27:20.637Z,22.93
2019-01-24T02:29:50.779Z,21.73
2019-01-24T02:32:21.395Z,19.00
2019-01-24T02:34:51.581Z,20.90
2019-01-24T02:37:21.738Z,21.80
2019-01-24T02:39:51.865Z,19.47
2019-01-24T02:42:22.054Z,21.43
2019-01-24T02:44:53.988Z,23.33
2019-01-24T02:47:24.128Z,21.83
2019-01-24T02:49:54.131Z,21.87
2019-01-24T02:52:24.226Z,22.40
2019-01-24T02:54:54.611Z,20.70
2019-01-24T02:57:25.136Z,21.20
2019-01-24T02:59:55.687Z,21.40
2019-01-24T03:02:25.734Z,23.67
2019-01-24T03:04:57.016Z,22.20
2019-01-24T03:07:27.284Z,22.03
2019-01-24T03:09:57.428Z,22.00
2019-01-24T03:12:27.508Z,20.60
2019-01-24T03:14:58.183Z,22.17
2019-01-24T03:17:28.896Z,24.20
2019-01-24T03:19:59.299Z,21.83
2019-01-24T03:22:29.409Z,22.90
2019-01-24T03:25:00.226Z,22.07
2019-01-24T03:27:30.379Z,21.20
2019-01-24T03:30:02.089Z,22.63
2019-01-24T03:32:32.721Z,24.67
2019-01-24T03:35:04.319Z,22.50
2019-01-24T03:37:35.060Z,20.97
2019-01-24T03:40:09.999Z,22.70
2019-01-24T03:42:40.050Z,20.70
2019-01-24T03:45:15.123Z,22.30
2019-01-24T03:47:45.375Z,23.17
2019-01-24T03:50:20.442Z,22.27
2019-01-24T03:52:51.743Z,22.77
2019-01-24T03:55:22.577Z,22.63
2019-01-24T03:57:53.219Z,22.70
2019-01-24T04:00:25.143Z,22.97
2019-01-24T04:02:56.264Z,22.07
2019-01-24T04:05:26.415Z,23.10
2019-01-24T04:07:56.794Z,22.40
2019-01-24T04:10:26.932Z,23.07
2019-01-24T04:12:57.919Z,23.90
2019-01-24T04:15:30.677Z,23.30
2019-01-24T04:18:01.108Z,22.77
2019-01-24T04:20:31.254Z,23.63
2019-01-24T04:23:02.067Z,22.37
2019-01-24T04:25:32.144Z,24.50
2019-01-24T04:28:02.285Z,24.27
2019-01-24T04:30:32.475Z,24.00
2019-01-24T04:33:02.896Z,23.40
2019-01-24T04:35:34.637Z,22.73
2019-01-24T04:38:04.880Z,24.53
2019-01-24T04:40:34.948Z,26.40
2019-01-24T04:43:07.676Z,23.83
2019-01-24T04:45:37.775Z,26.20
2019-01-24T04:48:09.014Z,23.90
2019-01-24T04:50:39.168Z,23.67
2019-01-24T04:53:09.659Z,23.23
2019-01-24T04:55:40.124Z,24.10
2019-01-24T04:58:10.175Z,23.70
2019-01-24T05:00:40.745Z,22.80
2019-01-24T05:03:10.896Z,22.37
2019-01-24T05:05:41.217Z,24.47
2019-01-24T05:08:11.387Z,21.83
2019-01-24T05:10:41.632Z,22.97
2019-01-24T05:13:11.812Z,23.40
2019-01-24T05:15:42.425Z,21.93
2019-01-24T05:18:12.626Z,23.47
2019-01-24T05:20:43.066Z,23.67
2019-01-24T05:23:14.421Z,24.43
2019-01-24T05:25:44.618Z,23.47
2019-01-24T05:28:14.726Z,21.80
2019-01-24T05:30:44.827Z,23.03
2019-01-24T05:33:14.970Z,20.80
2019-01-24T05:35:45.201Z,23.77
2019-01-24T05:38:15.833Z,22.33
2019-01-24T05:40:45.979Z,23.73
2019-01-24T05:43:16.066Z,22.67
2019-01-24T05:45:45.714Z,21.70
2019-01-24T05:48:16.139Z,22.57
2019-01-24T05:50:47.758Z,23.17
2019-01-24T05:53:19.181Z,21.63
2019-01-24T05:55:51.200Z,24.17
2019-01-24T05:58:22.029Z,23.27
2019-01-24T06:00:52.483Z,23.23
2019-01-24T06:03:22.093Z,22.60
2019-01-24T06:05:52.395Z,21.83
2019-01-24T06:08:23.512Z,23.13
2019-01-24T06:10:53.389Z,24.83
2019-01-24T06:13:23.418Z,23.47
2019-01-24T06:15:53.572Z,24.57
2019-01-24T06:18:24.195Z,24.07
2019-01-24T06:20:54.446Z,22.73
2019-01-24T06:23:26.464Z,23.97
2019-01-24T06:25:57.137Z,23.70
2019-01-24T06:28:27.628Z,23.17
2019-01-24T06:30:58.243Z,23.27
2019-01-24T06:33:29.314Z,22.23
2019-01-24T06:35:58.928Z,23.20
2019-01-24T06:38:29.086Z,23.47
2019-01-24T06:40:59.264Z,23.43
2019-01-24T06:43:30.704Z,24.47
2019-01-24T06:46:01.181Z,21.57
2019-01-24T06:48:31.349Z,24.33
2019-01-24T06:51:01.055Z,26.33
2019-01-24T06:53:33.075Z,24.97
2019-01-24T06:56:06.771Z,24.33
2019-01-24T06:58:38.215Z,24.80
2019-01-24T07:01:09.258Z,25.87
2019-01-24T07:03:39.382Z,24.10
2019-01-24T07:06:09.858Z,24.73
2019-01-24T07:08:41.084Z,24.57
2019-01-24T07:11:12.238Z,23.97
2019-01-24T07:13:41.899Z,23.53
2019-01-24T07:16:11.866Z,23.90
2019-01-24T07:18:42.064Z,21.53
2019-01-24T07:21:12.206Z,22.93
2019-01-24T07:23:42.631Z,22.67
2019-01-24T07:26:15.317Z,25.57
2019-01-24T07:28:46.314Z,23.67
2019-01-24T07:31:16.439Z,23.70
2019-01-24T07:33:45.953Z,24.50
2019-01-24T07:36:16.299Z,24.07
2019-01-24T07:38:46.512Z,23.03
2019-01-24T07:41:17.032Z,22.47
2019-01-24T07:43:47.397Z,22.93
2019-01-24T07:46:18.275Z,22.33
2019-01-24T07:48:48.779Z,21.43
2019-01-24T07:51:18.447Z,21.50
2019-01-24T07:53:48.586Z,21.27
2019-01-24T07:56:18.662Z,22.20
2019-01-24T07:58:50.060Z,22.93
2019-01-24T08:01:20.477Z,21.93
2019-01-24T08:03:50.845Z,21.63
2019-01-24T08:06:22.678Z,23.03
2019-01-24T08:08:56.230Z,22.43
2019-01-24T08:11:27.466Z,27.47
2019-01-24T08:13:58.703Z,18.83
2019-01-24T08:16:31.126Z,22.80
2019-01-24T08:19:01.332Z,22.60
2019-01-24T08:21:30.887Z,24.57
2019-01-24T08:24:01.128Z,24.33
2019-01-24T08:26:30.625Z,23.20
2019-01-24T08:29:00.749Z,23.57
2019-01-24T08:31:30.803Z,24.23
2019-01-24T08:34:01.023Z,25.40
2019-01-24T08:36:30.663Z,23.67
2019-01-24T08:39:00.900Z,25.03
2019-01-24T08:41:32.492Z,22.60
2019-01-24T08:44:03.074Z,24.60
2019-01-24T08:46:33.358Z,26.23
2019-01-24T08:49:03.705Z,23.90
2019-01-24T08:51:33.855Z,23.13
2019-01-24T08:54:04.075Z,23.33
2019-01-24T08:56:34.263Z,23.50
2019-01-24T08:59:03.821Z,22.77
2019-01-24T09:01:33.893Z,22.70
2019-01-24T09:04:05.463Z,22.23
2019-01-24T09:06:35.675Z,23.03
2019-01-24T09:09:08.923Z,23.33
2019-01-24T09:11:39.109Z,22.47
2019-01-24T09:14:09.068Z,21.80
2019-01-24T09:16:39.269Z,21.77
2019-01-24T09:19:09.598Z,21.50
2019-01-24T09:21:39.170Z,20.37
2019-01-24T09:24:09.151Z,20.27
2019-01-24T09:26:39.278Z,21.27
2019-01-24T09:29:09.683Z,17.23
2019-01-24T09:31:40.936Z,18.80
2019-01-24T09:34:10.608Z,19.50
2019-01-24T09:36:43.365Z,20.73
2019-01-24T09:39:13.408Z,19.60
2019-01-24T09:41:44.932Z,18.03
2019-01-24T09:44:16.180Z,21.33
2019-01-24T09:46:46.442Z,18.50
2019-01-24T09:49:15.924Z,19.50
2019-01-24T09:51:48.048Z,20.70
2019-01-24T09:54:17.997Z,20.03
2019-01-24T09:56:48.654Z,19.93
2019-01-24T09:59:18.842Z,18.63
2019-01-24T10:01:48.972Z,18.13
2019-01-24T10:04:19.190Z,19.90
2019-01-24T10:06:50.620Z,19.17
2019-01-24T10:09:20.858Z,19.60
2019-01-24T10:11:51.329Z,19.80
2019-01-24T10:14:21.612Z,17.80
2019-01-24T10:16:52.514Z,17.93
2019-01-24T10:19:22.346Z,18.63
2019-01-24T10:21:52.294Z,15.40
2019-01-24T10:24:22.148Z,16.77
2019-01-24T10:26:52.651Z,16.50
2019-01-24T10:29:22.727Z,17.50
2019-01-24T10:31:53.400Z,17.50
2019-01-24T10:34:23.738Z,17.50
2019-01-24T10:36:53.383Z,18.37
2019-01-24T10:39:23.437Z,15.60
2019-01-24T10:41:53.497Z,15.80
2019-01-24T10:44:23.710Z,17.60
2019-01-24T10:46:53.582Z,16.17
2019-01-24T10:49:23.363Z,15.77
2019-01-24T10:51:56.313Z,16.67
2019-01-24T10:54:26.484Z,16.53
2019-01-24T10:56:56.619Z,16.87
2019-01-24T10:59:26.844Z,16.60
2019-01-24T11:01:56.952Z,14.63
2019-01-24T11:04:27.039Z,16.30
2019-01-24T11:06:56.595Z,15.90
2019-01-24T11:09:27.156Z,16.03
2019-01-24T11:11:57.320Z,16.13
2019-01-24T11:14:27.608Z,15.53
2019-01-24T11:16:58.147Z,16.67
2019-01-24T11:19:28.403Z,15.17
2019-01-24T11:21:58.605Z,15.93
2019-01-24T11:24:28.643Z,15.60
2019-01-24T11:26:58.755Z,13.90
2019-01-24T11:29:29.965Z,14.57
2019-01-24T11:31:59.473Z,14.73
2019-01-24T11:34:29.441Z,14.63
2019-01-24T11:36:59.135Z,13.93
2019-01-24T11:39:29.577Z,14.90
2019-01-24T11:41:59.611Z,12.90
2019-01-24T11:44:32.359Z,14.00
2019-01-24T11:47:02.447Z,13.47
2019-01-24T11:49:32.142Z,13.77
2019-01-24T11:52:02.596Z,14.10
2019-01-24T11:54:32.774Z,13.17
2019-01-24T11:57:06.398Z,13.67
2019-01-24T11:59:36.544Z,13.90
2019-01-24T12:02:07.910Z,11.57
2019-01-24T12:04:38.168Z,12.43
2019-01-24T12:07:08.187Z,13.57
2019-01-24T12:09:38.351Z,12.80
2019-01-24T12:12:08.580Z,12.43
2019-01-24T12:14:38.123Z,11.50
2019-01-24T12:17:08.178Z,9.80
2019-01-24T12:19:37.778Z,11.53
2019-01-24T12:22:09.192Z,9.10
2019-01-24T12:24:38.733Z,10.23
2019-01-24T12:27:08.823Z,10.97
2019-01-24T12:29:38.639Z,11.03
2019-01-24T12:32:09.079Z,8.60
2019-01-24T12:34:38.852Z,10.47
2019-01-24T12:37:11.574Z,11.00
2019-01-24T12:39:41.625Z,9.33
2019-01-24T12:42:12.214Z,9.70
2019-01-24T12:44:42.393Z,11.47
2019-01-24T12:47:12.734Z,10.70
2019-01-24T12:49:43.371Z,12.93
2019-01-24T12:52:13.606Z,11.43
2019-01-24T12:54:44.112Z,10.93
2019-01-24T12:57:14.264Z,11.23
2019-01-24T12:59:44.368Z,12.10
2019-01-24T13:02:14.864Z,11.83
2019-01-24T13:04:44.758Z,11.83
2019-01-24T13:07:18.410Z,11.70
2019-01-24T13:09:46.330Z,12.20
2019-01-24T13:12:16.754Z,11.30
2019-01-24T13:14:46.971Z,10.97
2019-01-24T13:17:17.296Z,8.77
2019-01-24T13:19:48.501Z,11.17
2019-01-24T13:22:18.398Z,12.43
2019-01-24T13:24:49.395Z,12.67
2019-01-24T13:27:19.815Z,12.50
2019-01-24T13:29:52.662Z,11.13
2019-01-24T13:32:23.241Z,11.67
2019-01-24T13:34:53.784Z,10.03
2019-01-24T13:37:26.019Z,11.80
2019-01-24T13:39:55.782Z,11.83
2019-01-24T13:42:26.845Z,12.17
2019-01-24T13:44:56.746Z,11.27
2019-01-24T13:47:26.715Z,9.70
2019-01-24T13:49:58.736Z,11.03
2019-01-24T13:52:28.997Z,9.63
2019-01-24T13:55:00.050Z,11.13
2019-01-24T13:57:30.491Z,10.03
2019-01-24T14:00:00.719Z,9.60
2019-01-24T14:02:32.322Z,10.87
2019-01-24T14:05:02.390Z,11.70
2019-01-24T14:07:33.301Z,10.50
2019-01-24T14:10:04.742Z,9.93
2019-01-24T14:12:34.729Z,10.10
2019-01-24T14:15:06.019Z,9.40
2019-01-24T14:17:36.240Z,10.43
2019-01-24T14:20:06.822Z,9.83
2019-01-24T14:22:36.927Z,8.47
2019-01-24T14:25:09.499Z,10.63
2019-01-24T14:27:41.632Z,8.07
2019-01-24T14:30:22.745Z,9.70
2019-01-24T14:32:53.029Z,10.10
2019-01-24T14:35:23.793Z,10.77
2019-01-24T14:37:54.143Z,10.43
2019-01-24T14:40:25.802Z,8.70
2019-01-24T14:42:56.093Z,9.87
2019-01-24T14:45:27.342Z,10.50
2019-01-24T14:47:57.632Z,9.77
2019-01-24T14:50:27.983Z,7.77
2019-01-24T14:53:02.507Z,6.60
2019-01-24T14:55:32.978Z,6.70
2019-01-24T14:58:06.015Z,10.30
2019-01-24T15:00:39.009Z,8.40
2019-01-24T15:03:09.566Z,8.63
2019-01-24T15:05:40.001Z,10.37
2019-01-24T15:08:14.872Z,10.37
2019-01-24T15:10:46.722Z,11.03
2019-01-24T15:13:17.617Z,9.70
2019-01-24T15:15:47.711Z,11.23
2019-01-24T15:18:18.034Z,9.27
2019-01-24T15:20:49.359Z,9.97
2019-01-24T15:23:18.960Z,10.47
2019-01-24T15:25:51.404Z,9.90
2019-01-24T15:28:23.263Z,9.87
2019-01-24T15:30:52.821Z,11.53
2019-01-24T15:33:22.898Z,9.77
2019-01-24T15:35:53.627Z,10.20
2019-01-24T15:38:23.781Z,9.53
2019-01-24T15:40:54.335Z,8.60
2019-01-24T15:43:24.533Z,9.57
2019-01-24T15:45:55.530Z,8.70
2019-01-24T15:48:25.511Z,11.33
2019-01-24T15:50:55.818Z,9.00
2019-01-24T15:53:25.347Z,9.17
2019-01-24T15:55:55.324Z,9.33
2019-01-24T15:58:25.514Z,10.23
2019-01-24T16:00:55.626Z,8.70
2019-01-24T16:03:25.763Z,9.23
2019-01-24T16:05:56.495Z,8.37
2019-01-24T16:08:26.493Z,8.97
2019-01-24T16:10:57.114Z,9.13
2019-01-24T16:13:29.025Z,7.67
2019-01-24T16:15:59.204Z,9.50
2019-01-24T16:18:28.908Z,9.33
2019-01-24T16:20:58.999Z,12.07
2019-01-24T16:23:29.242Z,11.27
2019-01-24T16:25:59.753Z,10.97
2019-01-24T16:28:29.878Z,9.97
2019-01-24T16:31:01.591Z,8.97
2019-01-24T16:33:31.127Z,10.87
2019-01-24T16:36:01.554Z,10.50
2019-01-24T16:38:32.163Z,10.50
2019-01-24T16:41:04.656Z,11.20
2019-01-24T16:43:34.524Z,10.87
2019-01-24T16:46:04.872Z,9.93
2019-01-24T16:48:34.478Z,10.73
2019-01-24T16:51:04.740Z,10.13
2019-01-24T16:53:35.462Z,11.63
2019-01-24T16:56:05.219Z,9.90
2019-01-24T16:58:35.326Z,9.03
2019-01-24T17:01:17.264Z,7.87
2019-01-24T17:03:47.436Z,10.73
2019-01-24T17:06:17.407Z,10.90
2019-01-24T17:08:48.288Z,9.97
2019-01-24T17:11:18.393Z,11.37
2019-01-24T17:13:48.597Z,11.13
2019-01-24T17:16:18.955Z,11.37
2019-01-24T17:18:49.127Z,11.43
2019-01-24T17:21:19.329Z,10.60
2019-01-24T17:23:49.620Z,10.00
2019-01-24T17:26:19.505Z,10.50
2019-01-24T17:28:50.052Z,12.30
2019-01-24T17:31:20.809Z,11.90
2019-01-24T17:33:50.363Z,10.87
2019-01-24T17:36:20.420Z,10.33
2019-01-24T17:38:50.813Z,10.67
2019-01-24T17:41:21.116Z,11.27
2019-01-24T17:43:51.123Z,10.07
2019-01-24T17:46:22.029Z,10.83
2019-01-24T17:48:55.173Z,12.20
2019-01-24T17:51:25.100Z,16.23
2019-01-24T17:53:55.133Z,11.67
2019-01-24T17:56:25.688Z,9.10
2019-01-24T17:58:55.657Z,9.77
2019-01-24T18:01:25.400Z,9.67
2019-01-24T18:03:55.590Z,10.50
2019-01-24T18:06:25.949Z,7.43
2019-01-24T18:08:56.837Z,8.57
2019-01-24T18:11:27.219Z,7.10
2019-01-24T18:13:58.706Z,7.00
2019-01-24T18:16:28.812Z,10.17
2019-01-24T18:18:59.130Z,6.93
2019-01-24T18:21:34.761Z,9.30
2019-01-24T18:24:05.410Z,8.53
2019-01-24T18:26:35.712Z,8.70
2019-01-24T18:29:05.221Z,11.47
2019-01-24T18:31:36.054Z,10.20
2019-01-24T18:34:07.000Z,9.00
2019-01-24T18:36:37.454Z,10.07
2019-01-24T18:39:10.831Z,8.13
2019-01-24T18:41:41.261Z,9.43
2019-01-24T18:44:11.595Z,9.57
2019-01-24T18:46:44.462Z,9.70
2019-01-24T18:49:15.026Z,9.80
2019-01-24T18:51:47.035Z,9.10
2019-01-24T18:54:19.112Z,8.90
2019-01-24T18:56:49.548Z,10.10
2019-01-24T18:59:21.408Z,7.50
2019-01-24T19:01:51.740Z,11.07
2019-01-24T19:04:22.262Z,10.93
2019-01-24T19:06:53.404Z,10.17
2019-01-24T19:09:24.120Z,10.70
2019-01-24T19:11:53.745Z,10.23
2019-01-24T19:14:23.759Z,10.30
2019-01-24T19:16:53.870Z,9.90
2019-01-24T19:19:23.991Z,10.50
2019-01-24T19:21:55.920Z,11.47
2019-01-24T19:24:25.464Z,9.97
2019-01-24T19:26:55.313Z,12.27
2019-01-24T19:29:25.356Z,10.80
2019-01-24T19:31:56.266Z,12.20
2019-01-24T19:34:26.577Z,10.27
2019-01-24T19:36:58.349Z,11.93
2019-01-24T19:39:27.997Z,12.77
2019-01-24T19:42:00.531Z,10.80
2019-01-24T19:44:30.704Z,11.17
2019-01-24T19:47:01.123Z,11.40
2019-01-24T19:49:31.349Z,12.13
2019-01-24T19:52:01.579Z,9.80
2019-01-24T19:54:31.131Z,10.67
2019-01-24T19:57:01.232Z,10.27
2019-01-24T19:59:31.509Z,11.97
2019-01-24T20:02:01.655Z,12.80
2019-01-24T20:04:33.046Z,12.77
2019-01-24T20:07:03.346Z,8.70
2019-01-24T20:09:33.531Z,10.80
2019-01-24T20:12:03.760Z,10.70
2019-01-24T20:14:33.941Z,11.33
2019-01-24T20:17:04.413Z,9.30
2019-01-24T20:19:34.563Z,11.23
2019-01-24T20:22:04.871Z,12.00
2019-01-24T20:24:35.043Z,11.30
2019-01-24T20:27:05.048Z,9.07
2019-01-24T20:29:35.258Z,10.00
2019-01-24T20:32:05.398Z,10.77
2019-01-24T20:34:35.582Z,10.40
2019-01-24T20:37:05.745Z,12.43
2019-01-24T20:39:35.952Z,12.53
2019-01-24T20:42:06.128Z,10.47
2019-01-24T20:44:36.727Z,10.70
2019-01-24T20:47:06.927Z,10.87
2019-01-24T20:49:37.482Z,11.37
2019-01-24T20:52:07.816Z,10.83
2019-01-24T20:54:38.659Z,10.67
2019-01-24T20:57:08.854Z,11.47
2019-01-24T20:59:39.291Z,12.27
2019-01-24T21:02:09.499Z,9.40
2019-01-24T21:04:40.925Z,11.57
2019-01-24T21:07:11.197Z,10.63
2019-01-24T21:09:42.326Z,10.67
2019-01-24T21:12:12.582Z,10.67
2019-01-24T21:14:44.034Z,10.83
2019-01-24T21:17:16.501Z,10.00
2019-01-24T21:19:47.624Z,11.00
2019-01-24T21:22:17.188Z,10.20
2019-01-24T21:24:47.340Z,10.60
2019-01-24T21:27:16.949Z,9.73
2019-01-24T21:29:46.955Z,8.67
2019-01-24T21:32:17.141Z,10.07
2019-01-24T21:34:48.769Z,9.27
2019-01-24T21:37:19.905Z,8.67
2019-01-24T21:39:50.056Z,7.40
2019-01-24T21:42:20.551Z,10.23
2019-01-24T21:44:50.109Z,10.30
2019-01-24T21:47:20.118Z,10.33
2019-01-24T21:49:50.495Z,10.57
2019-01-24T21:52:21.851Z,10.27
2019-01-24T21:54:52.381Z,10.43
2019-01-24T21:57:22.756Z,10.60
2019-01-24T21:59:52.859Z,9.40
2019-01-24T22:02:23.409Z,9.63
2019-01-24T22:04:53.666Z,9.67
2019-01-24T22:07:24.074Z,9.17
2019-01-24T22:09:54.268Z,9.27
2019-01-24T22:12:24.808Z,10.13
2019-01-24T22:14:54.946Z,10.33
2019-01-24T22:17:25.507Z,9.93
2019-01-24T22:19:55.587Z,10.53
2019-01-24T22:22:27.429Z,10.13
2019-01-24T22:24:58.385Z,11.10
2019-01-24T22:27:29.592Z,10.13
2019-01-24T22:29:59.524Z,9.90
2019-01-24T22:32:29.554Z,10.23
2019-01-24T22:35:00.229Z,8.93
2019-01-24T22:37:30.512Z,9.10
2019-01-24T22:40:02.242Z,9.83
2019-01-24T22:42:32.408Z,10.60
2019-01-24T22:45:03.372Z,9.73
2019-01-24T22:47:33.496Z,9.90
2019-01-24T22:50:04.118Z,8.43
2019-01-24T22:52:34.799Z,9.73
2019-01-24T22:55:05.226Z,9.80
2019-01-24T22:57:37.372Z,9.90
2019-01-24T23:00:52.381Z,9.93
2019-01-24T23:03:34.584Z,9.53
2019-01-24T23:06:05.645Z,10.50
2019-01-24T23:08:37.690Z,9.17
2019-01-24T23:11:08.014Z,10.03
2019-01-24T23:13:40.390Z,9.67
2019-01-24T23:16:10.823Z,10.07
2019-01-24T23:18:41.324Z,9.73
2019-01-24T23:21:11.444Z,9.80
2019-01-24T23:23:42.162Z,7.20
2019-01-24T23:26:12.359Z,8.37
2019-01-24T23:28:42.899Z,10.37
2019-01-24T23:31:12.428Z,9.37
2019-01-24T23:33:42.784Z,9.17
2019-01-24T23:36:13.145Z,9.30
2019-01-24T23:38:43.668Z,8.47
2019-01-24T23:41:13.897Z,9.67
2019-01-24T23:43:44.181Z,9.90
2019-01-24T23:46:14.222Z,9.20
2019-01-24T23:48:44.657Z,10.57
2019-01-24T23:51:15.490Z,8.57
2019-01-24T23:53:48.125Z,8.87
2019-01-24T23:56:18.702Z,11.10
2019-01-24T23:58:49.143Z,10.50
